Ratcliff, Arkansas
Current Conditions -  °F | °C
As of 1:53 AM on Friday 24 Oct 2014 (Local Time) from KFSM Reporting Station
Clear Clear  
Wind Chill: 57°   Ceiling: Unl
Heat Index: 57°   Visibility: 10mi
Dew Point: 53°   Wind: 3mph
Humidity: 87%   Direction: 50°NE
Pressure: 30.13"   Gusts: NA
Location:  35.31°N, 93.88°W
Report Text: KFSM 240653Z AUTO 05003KT 10SM CLR 14/12 A3013 RMK AO2 SLP201 T01390117
Loading
Personal Weather Stations






























Interactive Weather Map
Tropical Storm Tracking
New forecast layout! Learn more

10-Day Weather Forecast

Advertisements
Track Severe Weather on mobile